createdAt,value
2018-02-09T00:00:22.785Z,936.19
2018-02-09T00:01:22.777Z,936.18
2018-02-09T00:02:22.769Z,936.20
2018-02-09T00:03:22.762Z,936.20
2018-02-09T00:04:22.754Z,936.19
2018-02-09T00:05:22.747Z,936.19
2018-02-09T00:06:22.738Z,936.17
2018-02-09T00:07:22.730Z,936.14
2018-02-09T00:08:22.724Z,936.13
2018-02-09T00:09:22.715Z,936.13
2018-02-09T00:10:22.708Z,936.13
2018-02-09T00:11:22.700Z,936.15
2018-02-09T00:12:22.693Z,936.08
2018-02-09T00:13:22.686Z,936.11
2018-02-09T00:14:22.681Z,936.09
2018-02-09T00:15:22.670Z,936.10
2018-02-09T00:16:22.662Z,936.08
2018-02-09T00:17:22.655Z,936.11
2018-02-09T00:18:22.647Z,936.13
2018-02-09T00:19:22.639Z,936.17
2018-02-09T00:20:22.632Z,936.11
2018-02-09T00:21:22.625Z,936.10
2018-02-09T00:22:22.618Z,936.13
2018-02-09T00:23:22.609Z,936.11
2018-02-09T00:24:22.602Z,936.08
2018-02-09T00:25:22.594Z,936.08
2018-02-09T00:26:22.587Z,936.08
2018-02-09T00:27:22.579Z,936.10
2018-02-09T00:28:22.572Z,936.07
2018-02-09T00:29:22.563Z,936.05
2018-02-09T00:30:22.556Z,936.03
2018-02-09T00:31:22.548Z,936.09
2018-02-09T00:32:22.541Z,936.07
2018-02-09T00:33:22.534Z,936.07
2018-02-09T00:34:22.527Z,936.07
2018-02-09T00:35:22.518Z,936.08
2018-02-09T00:36:22.511Z,936.03
2018-02-09T00:37:22.504Z,936.08
2018-02-09T00:38:22.496Z,936.06
2018-02-09T00:39:22.489Z,936.06
2018-02-09T00:40:22.482Z,936.08
2018-02-09T00:41:22.473Z,936.09
2018-02-09T00:42:22.466Z,936.07
2018-02-09T00:43:22.457Z,936.08
2018-02-09T00:44:22.451Z,936.03
2018-02-09T00:45:22.444Z,936.09
2018-02-09T00:46:22.437Z,936.05
2018-02-09T00:47:22.427Z,936.07
2018-02-09T00:48:22.420Z,936.06
2018-02-09T00:49:22.415Z,936.06
2018-02-09T00:50:22.406Z,936.10
2018-02-09T00:51:22.398Z,936.15
2018-02-09T00:52:22.391Z,936.10
2018-02-09T00:53:22.385Z,936.11
2018-02-09T00:54:22.376Z,936.10
2018-02-09T00:55:22.368Z,936.10
2018-02-09T00:56:22.361Z,936.10
2018-02-09T00:57:22.355Z,936.10
2018-02-09T00:58:22.347Z,936.07
2018-02-09T00:59:22.338Z,936.06
2018-02-09T01:00:22.330Z,936.06
2018-02-09T01:01:22.324Z,936.06
2018-02-09T01:02:22.317Z,936.06
2018-02-09T01:03:22.309Z,936.06
2018-02-09T01:04:22.301Z,936.07
2018-02-09T01:05:22.294Z,936.02
2018-02-09T01:06:22.287Z,936.03
2018-02-09T01:07:22.280Z,935.99
2018-02-09T01:08:22.272Z,935.97
2018-02-09T01:09:22.264Z,935.95
2018-02-09T01:10:22.256Z,935.97
2018-02-09T01:11:22.248Z,935.98
2018-02-09T01:12:22.241Z,935.96
2018-02-09T01:13:22.233Z,935.94
2018-02-09T01:14:22.225Z,935.95
2018-02-09T01:15:22.218Z,935.95
2018-02-09T01:16:22.211Z,935.93
2018-02-09T01:17:22.203Z,935.95
2018-02-09T01:18:22.196Z,935.95
2018-02-09T01:19:22.188Z,935.96
2018-02-09T01:20:22.180Z,935.98
2018-02-09T01:21:22.174Z,935.96
2018-02-09T01:22:22.165Z,935.93
2018-02-09T01:23:22.158Z,935.92
2018-02-09T01:24:22.149Z,935.91
2018-02-09T01:25:22.144Z,935.93
2018-02-09T01:26:22.136Z,935.91
2018-02-09T01:27:22.126Z,935.92
2018-02-09T01:28:22.119Z,935.90
2018-02-09T01:29:22.113Z,935.91
2018-02-09T01:30:22.106Z,935.88
2018-02-09T01:31:22.097Z,935.90
2018-02-09T01:32:22.089Z,935.88
2018-02-09T01:33:22.081Z,935.87
2018-02-09T01:34:22.075Z,935.87
2018-02-09T01:35:22.066Z,935.86
2018-02-09T01:36:22.059Z,935.84
2018-02-09T01:37:22.051Z,935.85
2018-02-09T01:38:22.044Z,935.83
2018-02-09T01:39:22.040Z,935.82
2018-02-09T01:40:22.029Z,935.80
2018-02-09T01:41:22.021Z,935.82
2018-02-09T01:42:22.014Z,935.83
2018-02-09T01:43:22.005Z,935.81
2018-02-09T01:44:21.999Z,935.78
2018-02-09T01:45:21.992Z,935.78
2018-02-09T01:46:21.985Z,935.81
2018-02-09T01:47:21.976Z,935.78
2018-02-09T01:48:21.969Z,935.81
2018-02-09T01:49:21.962Z,935.80
2018-02-09T01:50:21.954Z,935.81
2018-02-09T01:51:21.946Z,935.82
2018-02-09T01:52:21.939Z,935.83
2018-02-09T01:53:21.933Z,935.80
2018-02-09T01:54:21.923Z,935.82
2018-02-09T01:55:21.915Z,935.85
2018-02-09T01:56:21.909Z,935.81
2018-02-09T01:57:21.902Z,935.81
2018-02-09T01:58:21.895Z,935.82
2018-02-09T01:59:21.886Z,935.80
2018-02-09T02:00:21.879Z,935.86
2018-02-09T02:01:21.872Z,935.80
2018-02-09T02:02:21.863Z,935.82
2018-02-09T02:03:21.856Z,935.82
2018-02-09T02:04:21.848Z,935.80
2018-02-09T02:05:21.843Z,935.82
2018-02-09T02:06:21.835Z,935.82
2018-02-09T02:07:21.826Z,935.79
2018-02-09T02:08:21.820Z,935.79
2018-02-09T02:09:21.813Z,935.79
2018-02-09T02:10:21.805Z,935.78
2018-02-09T02:11:21.796Z,935.72
2018-02-09T02:12:21.790Z,935.76
2018-02-09T02:13:21.783Z,935.70
2018-02-09T02:14:21.776Z,935.70
2018-02-09T02:15:21.767Z,935.68
2018-02-09T02:16:21.759Z,935.66
2018-02-09T02:17:21.752Z,935.63
2018-02-09T02:18:21.746Z,935.60
2018-02-09T02:19:21.739Z,935.61
2018-02-09T02:20:21.731Z,935.64
2018-02-09T02:21:21.723Z,935.63
2018-02-09T02:22:21.717Z,935.63
2018-02-09T02:23:21.708Z,935.65
2018-02-09T02:24:21.701Z,935.66
2018-02-09T02:25:21.694Z,935.66
2018-02-09T02:26:21.687Z,935.66
2018-02-09T02:27:21.679Z,935.66
2018-02-09T02:28:21.671Z,935.64
2018-02-09T02:29:21.663Z,935.62
2018-02-09T02:30:21.655Z,935.61
2018-02-09T02:31:21.647Z,935.62
2018-02-09T02:32:21.642Z,935.63
2018-02-09T02:33:21.633Z,935.61
2018-02-09T02:34:21.626Z,935.60
2018-02-09T02:35:21.617Z,935.64
2018-02-09T02:36:21.611Z,935.59
2018-02-09T02:37:21.604Z,935.62
2018-02-09T02:38:21.595Z,935.65
2018-02-09T02:39:21.587Z,935.61
2018-02-09T02:40:21.581Z,935.61
2018-02-09T02:41:21.573Z,935.62
2018-02-09T02:42:21.566Z,935.59
2018-02-09T02:43:21.557Z,935.57
2018-02-09T02:44:21.552Z,935.61
2018-02-09T02:45:21.543Z,935.58
2018-02-09T02:46:21.537Z,935.56
2018-02-09T02:47:21.528Z,935.53
2018-02-09T02:48:21.520Z,935.54
2018-02-09T02:49:21.514Z,935.57
2018-02-09T02:50:21.507Z,935.55
2018-02-09T02:51:21.497Z,935.54
2018-02-09T02:52:21.491Z,935.51
2018-02-09T02:53:21.483Z,935.52
2018-02-09T02:54:21.478Z,935.56
2018-02-09T02:55:21.467Z,935.52
2018-02-09T02:56:21.460Z,935.51
2018-02-09T02:57:21.454Z,935.51
2018-02-09T02:58:21.447Z,935.52
2018-02-09T02:59:21.439Z,935.51
2018-02-09T03:00:21.431Z,935.50
2018-02-09T03:01:21.425Z,935.53
2018-02-09T03:02:21.416Z,935.51
2018-02-09T03:03:21.408Z,935.44
2018-02-09T03:04:21.401Z,935.45
2018-02-09T03:05:21.393Z,935.46
2018-02-09T03:06:21.386Z,935.45
2018-02-09T03:07:21.379Z,935.41
2018-02-09T03:08:21.370Z,935.40
2018-02-09T03:09:21.366Z,935.36
2018-02-09T03:10:21.355Z,935.40
2018-02-09T03:11:21.348Z,935.36
2018-02-09T03:12:21.341Z,935.39
2018-02-09T03:13:21.336Z,935.39
2018-02-09T03:14:21.325Z,935.38
2018-02-09T03:15:21.318Z,935.42
2018-02-09T03:16:21.310Z,935.39
2018-02-09T03:17:21.303Z,935.44
2018-02-09T03:18:21.296Z,935.41
2018-02-09T03:19:21.287Z,935.38
2018-02-09T03:20:21.280Z,935.40
2018-02-09T03:21:21.273Z,935.40
2018-02-09T03:22:21.268Z,935.36
2018-02-09T03:23:21.258Z,935.36
2018-02-09T03:24:21.251Z,935.39
2018-02-09T03:25:21.245Z,935.35
2018-02-09T03:26:21.235Z,935.38
2018-02-09T03:27:21.228Z,935.38
2018-02-09T03:28:21.220Z,935.37
2018-02-09T03:29:21.213Z,935.37
2018-02-09T03:30:21.207Z,935.39
2018-02-09T03:31:21.197Z,935.33
2018-02-09T03:32:21.190Z,935.35
2018-02-09T03:33:21.183Z,935.34
2018-02-09T03:34:21.175Z,935.33
2018-02-09T03:35:21.167Z,935.30
2018-02-09T03:36:21.160Z,935.29
2018-02-09T03:37:21.156Z,935.29
2018-02-09T03:38:21.146Z,935.29
2018-02-09T03:39:21.138Z,935.28
2018-02-09T03:40:21.130Z,935.25
2018-02-09T03:41:21.122Z,935.32
2018-02-09T03:42:21.115Z,935.30
2018-02-09T03:43:21.108Z,935.30
2018-02-09T03:44:21.099Z,935.28
2018-02-09T03:45:21.092Z,935.27
2018-02-09T03:46:21.085Z,935.31
2018-02-09T03:47:21.079Z,935.30
2018-02-09T03:48:21.069Z,935.31
2018-02-09T03:49:21.065Z,935.32
2018-02-09T03:50:21.054Z,935.34
2018-02-09T03:51:21.047Z,935.31
2018-02-09T03:52:21.039Z,935.29
2018-02-09T03:53:21.032Z,935.29
2018-02-09T03:54:21.024Z,935.27
2018-02-09T03:55:21.014Z,935.30
2018-02-09T03:56:21.008Z,935.32
2018-02-09T03:57:21.001Z,935.31
2018-02-09T03:58:20.992Z,935.31
2018-02-09T03:59:20.985Z,935.31
2018-02-09T04:00:20.977Z,935.32
2018-02-09T04:01:20.969Z,935.29
2018-02-09T04:02:20.963Z,935.26
2018-02-09T04:03:20.954Z,935.33
2018-02-09T04:04:20.947Z,935.29
2018-02-09T04:05:20.939Z,935.28
2018-02-09T04:06:20.936Z,935.31
2018-02-09T04:07:20.923Z,935.33
2018-02-09T04:08:20.917Z,935.31
2018-02-09T04:09:20.908Z,935.33
2018-02-09T04:10:20.902Z,935.29
2018-02-09T04:11:20.895Z,935.25
2018-02-09T04:12:20.886Z,935.26
2018-02-09T04:13:20.880Z,935.26
2018-02-09T04:14:20.871Z,935.24
2018-02-09T04:15:20.864Z,935.24
2018-02-09T04:16:20.857Z,935.26
2018-02-09T04:17:20.849Z,935.20
2018-02-09T04:18:20.842Z,935.18
2018-02-09T04:19:20.835Z,935.17
2018-02-09T04:20:20.826Z,935.21
2018-02-09T04:21:20.818Z,935.16
2018-02-09T04:22:20.811Z,935.17
2018-02-09T04:23:20.803Z,935.22
2018-02-09T04:24:20.798Z,935.19
2018-02-09T04:25:20.788Z,935.20
2018-02-09T04:26:20.781Z,935.22
2018-02-09T04:27:20.774Z,935.22
2018-02-09T04:28:20.766Z,935.19
2018-02-09T04:29:20.759Z,935.16
2018-02-09T04:30:20.751Z,935.14
2018-02-09T04:31:20.771Z,935.16
2018-02-09T04:32:20.736Z,935.17
2018-02-09T04:33:20.730Z,935.13
2018-02-09T04:34:20.721Z,935.13
2018-02-09T04:35:20.711Z,935.11
2018-02-09T04:36:20.705Z,935.10
2018-02-09T04:37:20.698Z,935.13
2018-02-09T04:38:20.690Z,935.10
2018-02-09T04:39:20.683Z,935.12
2018-02-09T04:40:20.675Z,935.09
2018-02-09T04:41:20.673Z,935.08
2018-02-09T04:42:20.660Z,935.08
2018-02-09T04:43:20.653Z,935.08
2018-02-09T04:44:20.648Z,935.07
2018-02-09T04:45:20.636Z,935.03
2018-02-09T04:46:20.629Z,935.06
2018-02-09T04:47:20.621Z,935.07
2018-02-09T04:48:20.614Z,935.06
2018-02-09T04:49:20.607Z,935.08
2018-02-09T04:50:20.601Z,935.07
2018-02-09T04:51:20.598Z,935.06
2018-02-09T04:52:20.585Z,935.03
2018-02-09T04:53:20.578Z,935.05
2018-02-09T04:54:20.570Z,935.05
2018-02-09T04:55:20.562Z,935.00
2018-02-09T04:56:20.554Z,935.00
2018-02-09T04:57:20.546Z,935.00
2018-02-09T04:58:20.540Z,934.98
2018-02-09T04:59:20.530Z,934.97
2018-02-09T05:00:20.523Z,934.97
2018-02-09T05:01:20.516Z,934.95
2018-02-09T05:02:20.509Z,934.94
2018-02-09T05:03:20.502Z,934.94
2018-02-09T05:04:20.494Z,934.93
2018-02-09T05:05:20.487Z,934.94
2018-02-09T05:06:20.480Z,934.95
2018-02-09T05:07:20.469Z,934.96
2018-02-09T05:08:20.464Z,934.95
2018-02-09T05:09:20.457Z,934.95
2018-02-09T05:10:20.448Z,934.97
2018-02-09T05:11:20.440Z,934.94
2018-02-09T05:12:20.432Z,934.91
2018-02-09T05:13:20.426Z,934.94
2018-02-09T05:14:20.418Z,934.93
2018-02-09T05:15:20.409Z,934.93
2018-02-09T05:16:20.402Z,934.90
2018-02-09T05:17:20.396Z,934.91
2018-02-09T05:18:20.388Z,934.90
2018-02-09T05:19:20.380Z,934.90
2018-02-09T05:20:20.371Z,934.90
2018-02-09T05:21:20.364Z,934.90
2018-02-09T05:22:20.357Z,934.87
2018-02-09T05:23:20.354Z,934.84
2018-02-09T05:24:20.340Z,934.88
2018-02-09T05:25:20.334Z,934.83
2018-02-09T05:26:20.326Z,934.82
2018-02-09T05:27:20.318Z,934.83
2018-02-09T05:28:20.310Z,934.89
2018-02-09T05:29:20.302Z,934.91
2018-02-09T05:30:20.299Z,934.93
2018-02-09T05:31:20.285Z,934.91
2018-02-09T05:32:20.278Z,934.89
2018-02-09T05:33:20.271Z,934.86
2018-02-09T05:34:20.264Z,934.92
2018-02-09T05:35:20.255Z,934.92
2018-02-09T05:36:20.249Z,934.84
2018-02-09T05:37:20.241Z,934.89
2018-02-09T05:38:20.233Z,934.86
2018-02-09T05:39:20.225Z,934.83
2018-02-09T05:40:20.217Z,934.84
2018-02-09T05:41:20.247Z,934.81
2018-02-09T05:42:20.201Z,934.81
2018-02-09T05:43:20.192Z,934.84
2018-02-09T05:44:20.185Z,934.84
2018-02-09T05:45:20.177Z,934.85
2018-02-09T05:46:20.171Z,934.84
2018-02-09T05:47:20.162Z,934.82
2018-02-09T05:48:20.155Z,934.85
2018-02-09T05:49:20.148Z,934.85
2018-02-09T05:50:20.141Z,934.86
2018-02-09T05:51:20.132Z,934.85
2018-02-09T05:52:20.124Z,934.88
2018-02-09T05:53:20.115Z,934.85
2018-02-09T05:54:20.108Z,934.83
2018-02-09T05:55:20.100Z,934.84
2018-02-09T05:56:20.094Z,934.86
2018-02-09T05:57:20.085Z,934.83
2018-02-09T05:58:20.079Z,934.82
2018-02-09T05:59:20.070Z,934.79
2018-02-09T06:00:20.063Z,934.80
2018-02-09T06:01:20.055Z,934.77
2018-02-09T06:02:20.048Z,934.77
2018-02-09T06:03:20.039Z,934.78
2018-02-09T06:04:20.032Z,934.76
2018-02-09T06:05:20.024Z,934.75
2018-02-09T06:06:20.017Z,934.79
2018-02-09T06:07:20.009Z,934.80
2018-02-09T06:08:20.005Z,934.78
2018-02-09T06:09:19.994Z,934.81
2018-02-09T06:10:19.986Z,934.82
2018-02-09T06:11:19.977Z,934.80
2018-02-09T06:12:19.970Z,934.83
2018-02-09T06:13:19.962Z,934.80
2018-02-09T06:14:19.955Z,934.83
2018-02-09T06:15:19.946Z,934.79
2018-02-09T06:16:19.939Z,934.82
2018-02-09T06:17:19.932Z,934.81
2018-02-09T06:18:19.924Z,934.81
2018-02-09T06:19:19.918Z,934.80
2018-02-09T06:20:19.908Z,934.78
2018-02-09T06:21:19.902Z,934.79
2018-02-09T06:22:19.893Z,934.78
2018-02-09T06:23:19.886Z,934.80
2018-02-09T06:24:19.879Z,934.83
2018-02-09T06:25:19.871Z,934.79
2018-02-09T06:26:19.877Z,934.78
2018-02-09T06:27:19.855Z,934.77
2018-02-09T06:28:19.848Z,934.79
2018-02-09T06:29:19.841Z,934.77
2018-02-09T06:30:19.833Z,934.77
2018-02-09T06:31:19.824Z,934.77
2018-02-09T06:32:19.817Z,934.77
2018-02-09T06:33:19.810Z,934.77
2018-02-09T06:34:19.804Z,934.76
2018-02-09T06:35:19.795Z,934.75
2018-02-09T06:36:19.788Z,934.76
2018-02-09T06:37:19.780Z,934.77
2018-02-09T06:38:19.773Z,934.74
2018-02-09T06:39:19.764Z,934.77
2018-02-09T06:40:19.756Z,934.78
2018-02-09T06:41:19.749Z,934.76
2018-02-09T06:42:19.741Z,934.76
2018-02-09T06:43:19.734Z,934.77
2018-02-09T06:44:19.726Z,934.74
2018-02-09T06:45:19.720Z,934.78
2018-02-09T06:46:19.713Z,934.79
2018-02-09T06:47:19.738Z,934.82
2018-02-09T06:48:19.697Z,934.75
2018-02-09T06:49:19.689Z,934.80
2018-02-09T06:50:19.682Z,934.80
2018-02-09T06:51:19.673Z,934.84
2018-02-09T06:52:19.667Z,934.85
2018-02-09T06:53:19.659Z,934.80
2018-02-09T06:54:19.650Z,934.84
2018-02-09T06:55:19.643Z,934.80
2018-02-09T06:56:19.639Z,934.84
2018-02-09T06:57:19.629Z,934.83
2018-02-09T06:58:19.622Z,934.89
2018-02-09T06:59:19.614Z,934.89
2018-02-09T07:00:19.607Z,934.89
2018-02-09T07:01:19.605Z,934.90
2018-02-09T07:02:19.592Z,934.92
2018-02-09T07:03:19.582Z,934.87
2018-02-09T07:04:19.576Z,934.86
2018-02-09T07:05:19.568Z,934.83
2018-02-09T07:06:19.562Z,934.87
2018-02-09T07:07:19.552Z,934.85
2018-02-09T07:08:19.547Z,934.85
2018-02-09T07:09:19.537Z,934.83
2018-02-09T07:10:19.530Z,934.81
2018-02-09T07:11:19.523Z,934.81
2018-02-09T07:12:19.515Z,934.83
2018-02-09T07:13:19.510Z,934.85
2018-02-09T07:14:19.501Z,934.84
2018-02-09T07:15:19.495Z,934.86
2018-02-09T07:16:19.484Z,934.87
2018-02-09T07:17:19.478Z,934.87
2018-02-09T07:18:19.471Z,934.85
2018-02-09T07:19:19.463Z,934.86
2018-02-09T07:20:19.472Z,934.83
2018-02-09T07:21:19.448Z,934.86
2018-02-09T07:22:19.440Z,934.88
2018-02-09T07:23:19.431Z,934.86
2018-02-09T07:24:19.426Z,934.81
2018-02-09T07:25:19.418Z,934.83
2018-02-09T07:26:19.411Z,934.83
2018-02-09T07:27:19.404Z,934.82
2018-02-09T07:28:19.744Z,934.82
2018-02-09T07:29:19.388Z,934.79
2018-02-09T07:30:19.380Z,934.83
2018-02-09T07:31:19.373Z,934.84
2018-02-09T07:32:19.366Z,934.84
2018-02-09T07:33:19.358Z,934.84
2018-02-09T07:34:19.352Z,934.83
2018-02-09T07:35:19.344Z,934.88
2018-02-09T07:36:19.336Z,934.81
2018-02-09T07:37:19.333Z,934.80
2018-02-09T07:38:19.324Z,934.77
2018-02-09T07:39:19.314Z,934.80
2018-02-09T07:40:19.308Z,934.82
2018-02-09T07:41:19.301Z,934.80
2018-02-09T07:42:19.293Z,934.81
2018-02-09T07:43:19.285Z,934.83
2018-02-09T07:44:19.278Z,934.88
2018-02-09T07:45:19.271Z,934.79
2018-02-09T07:46:19.264Z,934.86
2018-02-09T07:47:19.257Z,934.91
2018-02-09T07:48:19.249Z,934.83
2018-02-09T07:49:19.250Z,934.88
2018-02-09T07:50:19.235Z,934.86
2018-02-09T07:51:19.227Z,934.86
2018-02-09T07:52:19.219Z,934.88
2018-02-09T07:53:19.213Z,934.84
2018-02-09T07:54:19.205Z,934.88
2018-02-09T07:55:19.198Z,934.84
2018-02-09T07:56:19.192Z,934.85
2018-02-09T07:57:19.184Z,934.82
2018-02-09T07:58:19.178Z,934.82
2018-02-09T07:59:19.171Z,934.83
2018-02-09T08:00:19.162Z,934.83
2018-02-09T08:01:19.154Z,934.83
2018-02-09T08:02:19.148Z,934.84
2018-02-09T08:03:19.140Z,934.81
2018-02-09T08:04:19.133Z,934.85
2018-02-09T08:05:19.127Z,934.84
2018-02-09T08:06:19.118Z,934.86
2018-02-09T08:07:19.111Z,934.84
2018-02-09T08:08:19.104Z,934.84
2018-02-09T08:09:19.098Z,934.86
2018-02-09T08:10:19.090Z,934.89
2018-02-09T08:11:19.083Z,934.88
2018-02-09T08:12:19.077Z,934.86
2018-02-09T08:13:19.073Z,934.89
2018-02-09T08:14:19.062Z,934.92
2018-02-09T08:15:19.054Z,934.89
2018-02-09T08:16:19.047Z,934.86
2018-02-09T08:17:19.039Z,934.88
2018-02-09T08:18:19.034Z,934.83
2018-02-09T08:19:19.026Z,934.84
2018-02-09T08:20:19.017Z,934.86
2018-02-09T08:21:19.010Z,934.84
2018-02-09T08:22:19.004Z,934.85
2018-02-09T08:23:18.997Z,934.89
2018-02-09T08:24:18.998Z,934.88
2018-02-09T08:25:18.982Z,934.91
2018-02-09T08:26:18.975Z,934.92
2018-02-09T08:27:18.969Z,934.88
2018-02-09T08:28:18.961Z,934.87
2018-02-09T08:29:18.955Z,934.94
2018-02-09T08:30:18.948Z,934.84
2018-02-09T08:31:18.940Z,934.83
2018-02-09T08:32:18.933Z,934.86
2018-02-09T08:33:18.926Z,934.83
2018-02-09T08:34:18.920Z,934.82
2018-02-09T08:35:18.912Z,934.81
2018-02-09T08:36:18.904Z,934.80
2018-02-09T08:37:18.898Z,934.80
2018-02-09T08:38:18.892Z,934.78
2018-02-09T08:39:18.884Z,934.80
2018-02-09T08:40:18.877Z,934.80
2018-02-09T08:41:18.870Z,934.81
2018-02-09T08:42:18.862Z,934.78
2018-02-09T08:43:18.856Z,934.83
2018-02-09T08:44:18.849Z,934.79
2018-02-09T08:45:18.842Z,934.86
2018-02-09T08:46:18.836Z,934.82
2018-02-09T08:47:18.827Z,934.84
2018-02-09T08:48:18.822Z,934.84
2018-02-09T08:49:18.815Z,934.86
2018-02-09T08:50:18.807Z,934.83
2018-02-09T08:51:18.801Z,934.81
2018-02-09T08:52:18.794Z,934.82
2018-02-09T08:53:18.788Z,934.79
2018-02-09T08:54:18.781Z,934.83
2018-02-09T08:55:18.772Z,934.79
2018-02-09T08:56:18.766Z,934.79
2018-02-09T08:57:18.761Z,934.79
2018-02-09T08:58:18.751Z,934.79
2018-02-09T08:59:18.749Z,934.80
2018-02-09T09:00:18.740Z,934.77
2018-02-09T09:01:18.732Z,934.75
2018-02-09T09:02:18.724Z,934.79
2018-02-09T09:03:18.717Z,934.75
2018-02-09T09:04:18.710Z,934.75
2018-02-09T09:05:18.704Z,934.76
2018-02-09T09:06:18.697Z,934.72
2018-02-09T09:07:18.689Z,934.71
2018-02-09T09:08:18.684Z,934.71
2018-02-09T09:09:18.676Z,934.70
2018-02-09T09:10:18.670Z,934.73
2018-02-09T09:11:18.661Z,934.70
2018-02-09T09:12:18.654Z,934.69
2018-02-09T09:13:18.649Z,934.71
2018-02-09T09:14:18.642Z,934.70
2018-02-09T09:15:18.634Z,934.66
2018-02-09T09:16:18.626Z,934.65
2018-02-09T09:17:18.661Z,934.63
2018-02-09T09:18:18.615Z,934.65
2018-02-09T09:19:18.606Z,934.60
2018-02-09T09:20:18.600Z,934.61
2018-02-09T09:21:18.593Z,934.66
2018-02-09T09:22:18.587Z,934.56
2018-02-09T09:23:18.578Z,934.57
2018-02-09T09:24:18.572Z,934.57
2018-02-09T09:25:18.566Z,934.58
2018-02-09T09:26:18.560Z,934.53
2018-02-09T09:27:18.552Z,934.53
2018-02-09T09:28:18.544Z,934.55
2018-02-09T09:29:18.537Z,934.59
2018-02-09T09:30:18.532Z,934.52
2018-02-09T09:31:18.523Z,934.54
2018-02-09T09:32:18.517Z,934.59
2018-02-09T09:33:18.544Z,934.53
2018-02-09T09:34:18.556Z,934.52
2018-02-09T09:35:18.496Z,934.53
2018-02-09T09:36:18.490Z,934.52
2018-02-09T09:37:18.484Z,934.53
2018-02-09T09:38:18.477Z,934.54
2018-02-09T09:39:18.469Z,934.52
2018-02-09T09:40:18.463Z,934.51
2018-02-09T09:41:18.457Z,934.54
2018-02-09T09:42:18.450Z,934.49
2018-02-09T09:43:18.442Z,934.49
2018-02-09T09:44:18.434Z,934.47
2018-02-09T09:45:18.429Z,934.50
2018-02-09T09:46:18.423Z,934.46
2018-02-09T09:47:18.574Z,934.48
2018-02-09T09:48:18.409Z,934.46
2018-02-09T09:49:18.402Z,934.43
2018-02-09T09:50:18.395Z,934.43
2018-02-09T09:51:18.389Z,934.41
2018-02-09T09:52:18.381Z,934.40
2018-02-09T09:53:18.377Z,934.43
2018-02-09T09:54:18.370Z,934.34
2018-02-09T09:55:18.360Z,934.35
2018-02-09T09:56:18.355Z,934.34
2018-02-09T09:57:18.348Z,934.34
2018-02-09T09:58:18.341Z,934.35
2018-02-09T09:59:18.338Z,934.32
2018-02-09T10:00:18.332Z,934.32
2018-02-09T10:01:18.322Z,934.30
2018-02-09T10:02:18.315Z,934.32
2018-02-09T10:03:18.309Z,934.31
2018-02-09T10:04:18.306Z,934.26
2018-02-09T10:05:18.296Z,934.30
2018-02-09T10:06:18.289Z,934.27
2018-02-09T10:07:18.282Z,934.25
2018-02-09T10:08:18.277Z,934.24
2018-02-09T10:09:18.274Z,934.23
2018-02-09T10:10:18.262Z,934.20
2018-02-09T10:11:18.255Z,934.18
2018-02-09T10:12:18.249Z,934.16
2018-02-09T10:13:18.242Z,934.17
2018-02-09T10:14:18.236Z,934.14
2018-02-09T10:15:18.226Z,934.14
2018-02-09T10:16:18.221Z,934.12
2018-02-09T10:17:18.214Z,934.10
2018-02-09T10:18:18.206Z,934.07
2018-02-09T10:19:18.200Z,934.11
2018-02-09T10:20:18.193Z,934.05
2018-02-09T10:21:18.186Z,934.08
2018-02-09T10:22:18.179Z,934.05
2018-02-09T10:23:18.172Z,934.06
2018-02-09T10:24:18.166Z,934.05
2018-02-09T10:25:18.159Z,934.06
2018-02-09T10:26:18.153Z,934.03
2018-02-09T10:27:18.145Z,934.00
2018-02-09T10:28:18.138Z,933.98
2018-02-09T10:29:18.132Z,933.98
2018-02-09T10:30:18.125Z,933.94
2018-02-09T10:31:18.118Z,934.00
2018-02-09T10:32:18.111Z,933.94
2018-02-09T10:33:18.105Z,933.95
2018-02-09T10:34:18.099Z,933.91
2018-02-09T10:35:18.091Z,933.87
2018-02-09T10:36:18.084Z,933.86
2018-02-09T10:37:18.078Z,933.85
2018-02-09T10:38:18.071Z,933.86
2018-02-09T10:39:18.066Z,933.82
2018-02-09T10:40:18.058Z,933.79
2018-02-09T10:41:18.051Z,933.76
2018-02-09T10:42:18.048Z,933.77
2018-02-09T10:43:18.036Z,933.77
2018-02-09T10:44:18.031Z,933.78
2018-02-09T10:45:18.024Z,933.77
2018-02-09T10:46:18.018Z,933.77
2018-02-09T10:47:18.010Z,933.72
2018-02-09T10:48:18.004Z,933.73
2018-02-09T10:49:17.997Z,933.69
2018-02-09T10:50:17.991Z,933.69
2018-02-09T10:51:17.982Z,933.68
2018-02-09T10:52:17.978Z,933.71
2018-02-09T10:53:17.970Z,933.63
2018-02-09T10:54:17.964Z,933.65
2018-02-09T10:55:17.960Z,933.62
2018-02-09T10:56:17.950Z,933.61
2018-02-09T10:57:17.943Z,933.58
2018-02-09T10:58:17.937Z,933.59
2018-02-09T10:59:17.930Z,933.57
2018-02-09T11:00:17.923Z,933.54
2018-02-09T11:01:17.917Z,933.57
2018-02-09T11:02:17.912Z,933.50
2018-02-09T11:03:17.904Z,933.51
2018-02-09T11:04:17.899Z,933.52
2018-02-09T11:05:17.893Z,933.52
2018-02-09T11:06:17.886Z,933.51
2018-02-09T11:07:17.879Z,933.51
2018-02-09T11:08:17.873Z,933.55
2018-02-09T11:09:17.866Z,933.47
2018-02-09T11:10:17.864Z,933.49
2018-02-09T11:11:17.854Z,933.48
2018-02-09T11:12:17.847Z,933.49
2018-02-09T11:13:17.841Z,933.48
2018-02-09T11:14:17.836Z,933.50
2018-02-09T11:15:17.830Z,933.48
2018-02-09T11:16:17.824Z,933.45
2018-02-09T11:17:17.851Z,933.43
2018-02-09T11:18:17.811Z,933.43
2018-02-09T11:19:17.805Z,933.42
2018-02-09T11:20:17.799Z,933.39
2018-02-09T11:21:17.793Z,933.40
2018-02-09T11:22:17.787Z,933.39
2018-02-09T11:23:17.780Z,933.40
2018-02-09T11:24:17.777Z,933.38
2018-02-09T11:25:17.768Z,933.33
2018-02-09T11:26:17.762Z,933.36
2018-02-09T11:27:17.768Z,933.36
2018-02-09T11:28:17.750Z,933.36
2018-02-09T11:29:17.857Z,933.34
2018-02-09T11:30:17.738Z,933.32
2018-02-09T11:31:17.731Z,933.32
2018-02-09T11:32:17.726Z,933.33
2018-02-09T11:33:17.720Z,933.31
2018-02-09T11:34:17.713Z,933.30
2018-02-09T11:35:17.707Z,933.32
2018-02-09T11:36:17.702Z,933.34
2018-02-09T11:37:17.696Z,933.33
2018-02-09T11:38:17.690Z,933.25
2018-02-09T11:39:17.691Z,933.29
2018-02-09T11:40:17.677Z,933.24
2018-02-09T11:41:17.708Z,933.25
2018-02-09T11:42:17.679Z,933.22
2018-02-09T11:43:17.660Z,933.21
2018-02-09T11:44:17.653Z,933.23
2018-02-09T11:45:17.647Z,933.20
2018-02-09T11:46:17.642Z,933.21
2018-02-09T11:47:17.636Z,933.24
2018-02-09T11:48:17.630Z,933.20
2018-02-09T11:49:17.623Z,933.20
2018-02-09T11:50:17.618Z,933.20
2018-02-09T11:51:17.610Z,933.20
2018-02-09T11:52:17.605Z,933.19
2018-02-09T11:53:17.601Z,933.19
2018-02-09T11:54:17.595Z,933.19
2018-02-09T11:55:17.586Z,933.17
2018-02-09T11:56:17.581Z,933.09
2018-02-09T11:57:17.576Z,933.09
2018-02-09T11:58:17.569Z,933.09
2018-02-09T11:59:17.562Z,933.11
2018-02-09T12:00:17.558Z,933.08
2018-02-09T12:01:17.552Z,933.04
2018-02-09T12:02:17.545Z,933.10
2018-02-09T12:03:17.539Z,933.08
2018-02-09T12:04:17.534Z,933.05
2018-02-09T12:05:17.529Z,933.03
2018-02-09T12:06:17.522Z,933.06
2018-02-09T12:07:17.516Z,933.03
2018-02-09T12:08:17.510Z,933.04
2018-02-09T12:09:17.506Z,933.00
2018-02-09T12:10:17.502Z,933.02
2018-02-09T12:11:17.494Z,933.00
2018-02-09T12:12:17.489Z,932.97
2018-02-09T12:13:17.484Z,933.00
2018-02-09T12:14:17.480Z,932.97
2018-02-09T12:15:17.472Z,932.99
2018-02-09T12:16:17.465Z,932.96
2018-02-09T12:17:17.461Z,932.93
2018-02-09T12:18:17.456Z,932.89
2018-02-09T12:19:17.448Z,932.91
2018-02-09T12:20:17.446Z,932.89
2018-02-09T12:21:17.437Z,932.89
2018-02-09T12:22:17.433Z,932.93
2018-02-09T12:23:17.425Z,932.84
2018-02-09T12:24:17.420Z,932.88
2018-02-09T12:25:17.415Z,932.84
2018-02-09T12:26:17.408Z,932.86
2018-02-09T12:27:17.402Z,932.86
2018-02-09T12:28:17.397Z,932.86